createdAt,value
2017-05-08T00:00:19.553Z,18.20
2017-05-08T00:02:50.585Z,18.20
2017-05-08T00:05:21.151Z,18.30
2017-05-08T00:07:51.914Z,18.00
2017-05-08T00:10:22.841Z,18.00
2017-05-08T00:12:53.652Z,18.00
2017-05-08T00:15:24.555Z,18.00
2017-05-08T00:17:55.320Z,18.00
2017-05-08T00:20:27.408Z,18.10
2017-05-08T00:22:58.224Z,18.20
2017-05-08T00:25:28.874Z,18.10
2017-05-08T00:27:59.512Z,18.20
2017-05-08T00:30:30.335Z,18.30
2017-05-08T00:33:01.237Z,18.40
2017-05-08T00:35:32.242Z,18.40
2017-05-08T00:38:03.073Z,18.30
2017-05-08T00:40:33.653Z,18.20
2017-05-08T00:43:04.654Z,18.20
2017-05-08T00:45:36.112Z,18.30
2017-05-08T00:48:06.920Z,18.10
2017-05-08T00:50:37.671Z,18.20
2017-05-08T00:53:08.297Z,18.20
2017-05-08T00:55:39.063Z,18.20
2017-05-08T00:58:09.774Z,18.20
2017-05-08T01:00:40.278Z,18.20
2017-05-08T01:03:11.711Z,18.10
2017-05-08T01:05:42.375Z,18.10
2017-05-08T01:08:13.654Z,18.20
2017-05-08T01:10:44.701Z,18.20
2017-05-08T01:13:15.664Z,18.20
2017-05-08T01:15:46.435Z,18.30
2017-05-08T01:18:17.271Z,18.20
2017-05-08T01:20:48.752Z,18.20
2017-05-08T01:23:19.695Z,18.20
2017-05-08T01:25:50.175Z,18.30
2017-05-08T01:28:22.023Z,18.40
2017-05-08T01:30:52.992Z,18.20
2017-05-08T01:33:23.974Z,18.10
2017-05-08T01:35:54.443Z,17.90
2017-05-08T01:38:25.181Z,17.90
2017-05-08T01:40:55.699Z,17.70
2017-05-08T01:43:26.661Z,17.70
2017-05-08T01:45:57.556Z,17.70
2017-05-08T01:48:28.246Z,17.70
2017-05-08T01:50:59.092Z,17.60
2017-05-08T01:53:29.923Z,17.70
2017-05-08T01:56:00.798Z,17.70
2017-05-08T01:58:31.660Z,17.60
2017-05-08T02:01:02.995Z,17.60
2017-05-08T02:03:33.695Z,17.70
2017-05-08T02:06:04.167Z,17.50
2017-05-08T02:08:36.036Z,17.60
2017-05-08T02:11:06.694Z,17.50
2017-05-08T02:13:37.556Z,17.40
2017-05-08T02:16:08.185Z,17.30
2017-05-08T02:18:39.450Z,17.20
2017-05-08T02:21:10.806Z,17.10
2017-05-08T02:23:41.480Z,17.00
2017-05-08T02:26:12.090Z,17.00
2017-05-08T02:28:43.401Z,16.90
2017-05-08T02:31:14.502Z,16.80
2017-05-08T02:33:45.323Z,16.80
2017-05-08T02:36:16.280Z,16.80
2017-05-08T02:38:47.114Z,16.70
2017-05-08T02:41:17.677Z,16.60
2017-05-08T02:43:48.597Z,16.50
2017-05-08T02:46:19.573Z,16.40
2017-05-08T02:48:50.655Z,16.30
2017-05-08T02:51:21.602Z,16.20
2017-05-08T02:53:52.372Z,16.10
2017-05-08T02:56:23.233Z,16.00
2017-05-08T02:58:54.342Z,16.00
2017-05-08T03:01:25.399Z,15.80
2017-05-08T03:03:56.166Z,15.80
2017-05-08T03:06:26.840Z,15.70
2017-05-08T03:08:57.996Z,15.70
2017-05-08T03:11:28.973Z,15.60
2017-05-08T03:13:59.809Z,15.60
2017-05-08T03:16:30.258Z,15.50
2017-05-08T03:19:01.241Z,15.40
2017-05-08T03:21:32.604Z,15.50
2017-05-08T03:24:03.483Z,15.30
2017-05-08T03:26:34.994Z,15.30
2017-05-08T03:29:06.054Z,15.30
2017-05-08T03:31:37.254Z,15.30
2017-05-08T03:34:07.885Z,15.20
2017-05-08T03:36:38.723Z,15.10
2017-05-08T03:39:09.784Z,15.10
2017-05-08T03:41:40.570Z,15.00
2017-05-08T03:44:12.332Z,14.90
2017-05-08T03:46:43.054Z,14.90
2017-05-08T03:49:13.846Z,14.80
2017-05-08T03:51:44.415Z,14.70
2017-05-08T03:54:15.277Z,14.70
2017-05-08T03:56:46.180Z,14.70
2017-05-08T03:59:17.695Z,14.70
2017-05-08T04:01:48.191Z,14.60
2017-05-08T04:04:19.549Z,14.50
2017-05-08T04:06:50.429Z,14.50
2017-05-08T04:09:21.220Z,14.40
2017-05-08T04:11:52.043Z,14.40
2017-05-08T04:14:22.993Z,14.30
2017-05-08T04:16:53.892Z,14.30
2017-05-08T04:19:24.733Z,14.30
2017-05-08T04:21:56.138Z,14.20
2017-05-08T04:24:26.940Z,14.10
2017-05-08T04:26:58.460Z,14.00
2017-05-08T04:29:29.286Z,14.00
2017-05-08T04:32:00.112Z,13.90
2017-05-08T04:34:31.069Z,13.80
2017-05-08T04:37:01.785Z,13.80
2017-05-08T04:39:32.482Z,13.80
2017-05-08T04:42:03.215Z,13.70
2017-05-08T04:44:33.935Z,13.60
2017-05-08T04:47:05.104Z,13.50
2017-05-08T04:49:35.750Z,13.50
2017-05-08T04:52:06.425Z,13.50
2017-05-08T04:54:37.126Z,13.50
2017-05-08T04:57:07.630Z,13.40
2017-05-08T04:59:38.797Z,13.30
2017-05-08T05:02:09.761Z,13.30
2017-05-08T05:04:40.354Z,13.20
2017-05-08T05:07:10.998Z,13.20
2017-05-08T05:09:42.015Z,13.10
2017-05-08T05:12:12.774Z,13.10
2017-05-08T05:14:43.672Z,13.10
2017-05-08T05:17:14.560Z,13.10
2017-05-08T05:19:45.116Z,12.90
2017-05-08T05:22:16.905Z,12.90
2017-05-08T05:24:47.920Z,12.80
2017-05-08T05:27:18.857Z,12.90
2017-05-08T05:29:49.686Z,12.80
2017-05-08T05:32:20.631Z,12.70
2017-05-08T05:34:51.473Z,12.70
2017-05-08T05:37:22.258Z,12.60
2017-05-08T05:39:53.374Z,12.60
2017-05-08T05:42:24.404Z,12.50
2017-05-08T05:44:55.441Z,12.40
2017-05-08T05:47:26.201Z,12.40
2017-05-08T05:49:57.171Z,12.50
2017-05-08T05:52:27.825Z,12.40
2017-05-08T05:54:58.353Z,12.30
2017-05-08T05:57:29.024Z,12.30
2017-05-08T05:59:59.771Z,12.20
2017-05-08T06:02:30.647Z,12.20
2017-05-08T06:05:01.743Z,12.10
2017-05-08T06:07:32.733Z,12.10
2017-05-08T06:10:03.822Z,12.10
2017-05-08T06:12:34.586Z,12.00
2017-05-08T06:15:05.217Z,11.90
2017-05-08T06:17:36.111Z,11.90
2017-05-08T06:20:06.996Z,11.80
2017-05-08T06:22:38.607Z,11.80
2017-05-08T06:25:09.569Z,11.80
2017-05-08T06:27:40.676Z,11.70
2017-05-08T06:30:11.280Z,11.70
2017-05-08T06:32:41.687Z,11.70
2017-05-08T06:35:12.328Z,11.70
2017-05-08T06:37:42.947Z,11.70
2017-05-08T06:40:13.935Z,11.70
2017-05-08T06:42:44.728Z,11.60
2017-05-08T06:45:15.618Z,11.60
2017-05-08T06:47:47.211Z,11.60
2017-05-08T06:50:17.675Z,11.50
2017-05-08T06:52:48.416Z,11.50
2017-05-08T06:55:19.144Z,11.40
2017-05-08T06:57:50.074Z,11.40
2017-05-08T07:00:20.740Z,11.40
2017-05-08T07:02:51.446Z,11.30
2017-05-08T07:05:22.414Z,11.30
2017-05-08T07:07:53.094Z,11.30
2017-05-08T07:10:23.382Z,11.20
2017-05-08T07:12:54.171Z,11.20
2017-05-08T07:15:25.110Z,11.20
2017-05-08T07:17:55.723Z,11.10
2017-05-08T07:20:26.423Z,11.20
2017-05-08T07:22:58.318Z,11.00
2017-05-08T07:25:29.239Z,11.00
2017-05-08T07:28:00.058Z,11.00
2017-05-08T07:30:30.977Z,10.90
2017-05-08T07:33:01.672Z,10.90
2017-05-08T07:35:33.105Z,10.80
2017-05-08T07:38:03.165Z,10.80
2017-05-08T07:40:33.958Z,10.80
2017-05-08T07:43:04.953Z,10.70
2017-05-08T07:45:35.855Z,10.70
2017-05-08T07:48:06.833Z,10.70
2017-05-08T07:50:37.718Z,10.70
2017-05-08T07:53:08.574Z,10.60
2017-05-08T07:55:39.319Z,10.50
2017-05-08T07:58:09.847Z,10.50
2017-05-08T08:00:41.606Z,10.50
2017-05-08T08:03:12.077Z,10.50
2017-05-08T08:05:42.997Z,10.50
2017-05-08T08:08:13.566Z,10.40
2017-05-08T08:10:44.350Z,10.40
2017-05-08T08:13:14.838Z,10.40
2017-05-08T08:15:45.454Z,10.40
2017-05-08T08:18:17.283Z,10.30
2017-05-08T08:20:47.981Z,10.30
2017-05-08T08:23:20.253Z,10.30
2017-05-08T08:25:51.241Z,10.10
2017-05-08T08:28:22.826Z,10.00
2017-05-08T08:30:53.715Z,9.90
2017-05-08T08:33:24.924Z,9.90
2017-05-08T08:35:55.634Z,9.90
2017-05-08T08:38:26.591Z,9.80
2017-05-08T08:40:57.347Z,9.70
2017-05-08T08:43:27.932Z,9.50
2017-05-08T08:45:58.581Z,9.40
2017-05-08T08:48:29.200Z,9.50
2017-05-08T08:50:59.924Z,9.50
2017-05-08T08:53:30.503Z,9.50
2017-05-08T08:56:00.957Z,9.30
2017-05-08T08:58:31.895Z,9.30
2017-05-08T09:01:02.733Z,9.10
2017-05-08T09:03:33.289Z,9.10
2017-05-08T09:06:03.996Z,8.90
2017-05-08T09:08:34.765Z,8.80
2017-05-08T09:11:05.465Z,8.70
2017-05-08T09:13:36.168Z,8.80
2017-05-08T09:16:06.892Z,8.80
2017-05-08T09:18:37.669Z,8.90
2017-05-08T09:21:08.192Z,9.00
2017-05-08T09:23:40.089Z,9.00
2017-05-08T09:26:10.823Z,9.10
2017-05-08T09:28:41.849Z,9.40
2017-05-08T09:31:13.709Z,9.10
2017-05-08T09:33:44.221Z,9.10
2017-05-08T09:36:14.924Z,9.10
2017-05-08T09:38:45.444Z,9.10
2017-05-08T09:41:16.447Z,9.10
2017-05-08T09:43:47.176Z,9.10
2017-05-08T09:46:18.875Z,8.90
2017-05-08T09:48:49.651Z,9.00
2017-05-08T09:51:20.538Z,9.20
2017-05-08T09:53:51.267Z,9.10
2017-05-08T09:56:21.917Z,8.90
2017-05-08T09:58:52.621Z,8.80
2017-05-08T10:01:23.446Z,8.80
2017-05-08T10:03:54.232Z,8.80
2017-05-08T10:06:25.043Z,8.90
2017-05-08T10:08:55.793Z,9.10
2017-05-08T10:11:26.743Z,9.00
2017-05-08T10:13:57.254Z,8.90
2017-05-08T10:16:28.033Z,8.60
2017-05-08T10:18:58.678Z,8.50
2017-05-08T10:21:29.238Z,8.60
2017-05-08T10:24:01.150Z,8.70
2017-05-08T10:26:31.955Z,8.50
2017-05-08T10:29:02.652Z,8.50
2017-05-08T10:31:33.617Z,8.60
2017-05-08T10:34:04.551Z,8.30
2017-05-08T10:36:35.120Z,8.40
2017-05-08T10:39:05.815Z,8.30
2017-05-08T10:41:36.822Z,8.30
2017-05-08T10:44:07.511Z,8.40
2017-05-08T10:46:38.220Z,8.30
2017-05-08T10:49:08.859Z,8.20
2017-05-08T10:51:39.639Z,8.10
2017-05-08T10:54:10.693Z,8.10
2017-05-08T10:56:41.238Z,8.20
2017-05-08T10:59:11.970Z,8.20
2017-05-08T11:01:43.735Z,8.50
2017-05-08T11:04:15.218Z,8.30
2017-05-08T11:06:45.857Z,8.40
2017-05-08T11:09:16.760Z,8.20
2017-05-08T11:11:47.311Z,8.10
2017-05-08T11:14:18.322Z,7.80
2017-05-08T11:16:49.261Z,8.00
2017-05-08T11:19:20.027Z,8.10
2017-05-08T11:21:50.977Z,8.00
2017-05-08T11:24:22.940Z,7.90
2017-05-08T11:26:53.664Z,7.90
2017-05-08T11:29:24.221Z,7.90
2017-05-08T11:31:54.995Z,7.80
2017-05-08T11:34:25.958Z,7.60
2017-05-08T11:36:56.812Z,7.60
2017-05-08T11:39:27.753Z,7.80
2017-05-08T11:41:58.411Z,7.60
2017-05-08T11:44:29.104Z,7.70
2017-05-08T11:46:59.784Z,7.70
2017-05-08T11:49:30.758Z,7.70
2017-05-08T11:52:01.690Z,7.60
2017-05-08T11:54:33.184Z,7.80
2017-05-08T11:57:03.653Z,7.40
2017-05-08T11:59:34.315Z,7.30
2017-05-08T12:02:05.439Z,7.50
2017-05-08T12:04:36.085Z,7.70
2017-05-08T12:07:06.730Z,7.50
2017-05-08T12:09:37.351Z,7.70
2017-05-08T12:12:08.219Z,7.40
2017-05-08T12:14:38.566Z,7.50
2017-05-08T12:17:09.400Z,7.50
2017-05-08T12:19:40.263Z,7.40
2017-05-08T12:22:11.121Z,7.40
2017-05-08T12:24:43.434Z,7.00
2017-05-08T12:27:14.325Z,7.10
2017-05-08T12:29:45.118Z,7.40
2017-05-08T12:32:15.875Z,7.10
2017-05-08T12:34:46.741Z,7.10
2017-05-08T12:37:17.616Z,7.00
2017-05-08T12:39:47.912Z,6.80
2017-05-08T12:42:18.579Z,6.50
2017-05-08T12:44:49.486Z,6.70
2017-05-08T12:47:20.280Z,6.70
2017-05-08T12:49:51.182Z,6.80
2017-05-08T12:52:22.130Z,6.90
2017-05-08T12:54:52.747Z,6.90
2017-05-08T12:57:23.597Z,7.00
2017-05-08T12:59:54.116Z,6.80
2017-05-08T13:02:25.066Z,7.00
2017-05-08T13:04:55.696Z,6.80
2017-05-08T13:07:26.502Z,6.70
2017-05-08T13:09:57.263Z,6.60
2017-05-08T13:12:28.354Z,6.60
2017-05-08T13:14:59.233Z,6.50
2017-05-08T13:17:29.889Z,6.50
2017-05-08T13:20:07.835Z,6.60
2017-05-08T13:22:38.193Z,6.70
2017-05-08T13:25:10.074Z,6.90
2017-05-08T13:27:40.776Z,6.90
2017-05-08T13:30:11.438Z,7.00
2017-05-08T13:32:42.445Z,7.20
2017-05-08T13:35:12.961Z,7.40
2017-05-08T13:37:43.809Z,7.70
2017-05-08T13:40:14.454Z,7.50
2017-05-08T13:42:45.175Z,7.80
2017-05-08T13:45:15.999Z,7.90
2017-05-08T13:47:46.579Z,8.10
2017-05-08T13:50:17.391Z,8.40
2017-05-08T13:52:48.437Z,8.50
2017-05-08T13:55:19.339Z,8.50
2017-05-08T13:57:50.254Z,8.60
2017-05-08T14:00:20.820Z,8.80
2017-05-08T14:02:51.609Z,9.20
2017-05-08T14:05:22.444Z,9.70
2017-05-08T14:07:53.133Z,10.20
2017-05-08T14:10:23.994Z,10.70
2017-05-08T14:12:54.679Z,11.20
2017-05-08T14:15:25.460Z,11.70
2017-05-08T14:17:56.368Z,11.90
2017-05-08T14:20:27.472Z,12.00
2017-05-08T14:22:58.187Z,12.10
2017-05-08T14:25:29.641Z,12.10
2017-05-08T14:28:00.464Z,12.20
2017-05-08T14:30:31.278Z,12.20
2017-05-08T14:33:02.025Z,12.00
2017-05-08T14:35:32.762Z,12.00
2017-05-08T14:38:03.438Z,12.00
2017-05-08T14:40:34.325Z,12.40
2017-05-08T14:43:05.450Z,12.70
2017-05-08T14:45:36.372Z,12.90
2017-05-08T14:48:07.202Z,12.60
2017-05-08T14:50:37.878Z,12.70
2017-05-08T14:53:08.933Z,12.90
2017-05-08T14:55:39.265Z,13.40
2017-05-08T14:58:09.847Z,13.90
2017-05-08T15:00:39.903Z,13.80
2017-05-08T15:03:10.040Z,13.70
2017-05-08T15:05:39.958Z,14.10
2017-05-08T15:08:10.883Z,15.20
2017-05-08T15:10:41.556Z,15.30
2017-05-08T15:13:12.215Z,16.40
2017-05-08T15:15:42.831Z,16.90
2017-05-08T15:18:13.281Z,16.60
2017-05-08T15:20:44.938Z,18.10
2017-05-08T15:23:15.943Z,18.90
2017-05-08T15:25:47.403Z,19.80
2017-05-08T15:28:18.090Z,20.80
2017-05-08T15:30:48.856Z,22.60
2017-05-08T15:33:19.607Z,23.50
2017-05-08T15:35:50.415Z,25.20
2017-05-08T15:38:21.205Z,25.40
2017-05-08T15:40:52.932Z,25.10
2017-05-08T15:43:23.880Z,24.20
2017-05-08T15:45:54.311Z,24.00
2017-05-08T15:48:25.118Z,25.50
2017-05-08T15:50:55.963Z,26.50
2017-05-08T15:53:26.660Z,26.90
2017-05-08T15:55:57.548Z,27.10
2017-05-08T15:58:28.569Z,25.70
2017-05-08T16:00:59.100Z,26.10
2017-05-08T16:03:29.679Z,27.70
2017-05-08T16:06:00.527Z,27.50
2017-05-08T16:08:31.251Z,27.10
2017-05-08T16:11:02.850Z,25.70
2017-05-08T16:13:33.640Z,25.30
2017-05-08T16:16:04.427Z,25.10
2017-05-08T16:18:35.174Z,23.50
2017-05-08T16:21:05.987Z,22.50
2017-05-08T16:23:37.034Z,21.00
2017-05-08T16:26:08.522Z,21.20
2017-05-08T16:28:40.174Z,23.10
2017-05-08T16:31:10.867Z,25.00
2017-05-08T16:33:41.748Z,27.50
2017-05-08T16:36:12.649Z,28.60
2017-05-08T16:38:43.276Z,29.30
2017-05-08T16:41:13.940Z,30.70
2017-05-08T16:43:44.697Z,30.70
2017-05-08T16:46:15.648Z,32.00
2017-05-08T16:48:46.480Z,33.00
2017-05-08T16:51:17.231Z,31.10
2017-05-08T16:53:48.141Z,30.80
2017-05-08T16:56:18.923Z,31.00
2017-05-08T16:58:49.623Z,32.00
2017-05-08T17:01:20.512Z,30.50
2017-05-08T17:03:51.206Z,31.20
2017-05-08T17:06:21.917Z,32.30
2017-05-08T17:08:52.909Z,31.20
2017-05-08T17:11:23.544Z,33.30
2017-05-08T17:13:54.471Z,34.30
2017-05-08T17:16:25.049Z,33.20
2017-05-08T17:18:56.809Z,34.50
2017-05-08T17:21:28.158Z,34.20
2017-05-08T17:23:59.096Z,35.70
2017-05-08T17:26:31.615Z,33.70
2017-05-08T17:29:02.144Z,34.40
2017-05-08T17:31:32.832Z,33.50
2017-05-08T17:34:03.540Z,32.00
2017-05-08T17:36:34.234Z,31.60
2017-05-08T17:39:05.327Z,31.60
2017-05-08T17:41:36.053Z,32.50
2017-05-08T17:44:06.797Z,31.90
2017-05-08T17:46:37.427Z,31.30
2017-05-08T17:49:08.210Z,31.30
2017-05-08T17:51:38.902Z,31.20
2017-05-08T17:54:09.690Z,30.60
2017-05-08T17:56:40.566Z,30.60
2017-05-08T17:59:11.411Z,30.00
2017-05-08T18:01:42.552Z,29.40
2017-05-08T18:04:13.365Z,29.90
2017-05-08T18:06:43.921Z,29.50
2017-05-08T18:09:15.631Z,29.20
2017-05-08T18:11:46.483Z,29.50
2017-05-08T18:14:17.156Z,29.80
2017-05-08T18:16:48.534Z,29.10
2017-05-08T18:19:19.236Z,29.30
2017-05-08T18:21:49.908Z,30.30
2017-05-08T18:24:20.533Z,31.40
2017-05-08T18:26:52.492Z,32.70
2017-05-08T18:29:23.292Z,31.90
2017-05-08T18:31:54.248Z,32.10
2017-05-08T18:34:25.388Z,32.80
2017-05-08T18:36:56.240Z,32.60
2017-05-08T18:39:27.330Z,32.60
2017-05-08T18:41:58.047Z,32.30
2017-05-08T18:44:28.789Z,32.70
2017-05-08T18:46:59.823Z,34.60
2017-05-08T18:49:30.536Z,35.10
2017-05-08T18:52:01.135Z,35.00
2017-05-08T18:54:32.867Z,34.20
2017-05-08T18:57:03.662Z,33.40
2017-05-08T18:59:34.492Z,33.00
2017-05-08T19:02:05.502Z,32.60
2017-05-08T19:04:36.284Z,32.60
2017-05-08T19:07:06.856Z,33.50
2017-05-08T19:09:37.505Z,33.40
2017-05-08T19:12:08.401Z,31.30
2017-05-08T19:14:39.359Z,31.50
2017-05-08T19:17:10.089Z,32.30
2017-05-08T19:19:41.581Z,32.60
2017-05-08T19:22:12.353Z,32.30
2017-05-08T19:24:43.261Z,31.70
2017-05-08T19:27:16.035Z,31.50
2017-05-08T19:29:46.790Z,31.00
2017-05-08T19:32:17.411Z,31.70
2017-05-08T19:34:48.229Z,31.50
2017-05-08T19:37:19.065Z,30.20
2017-05-08T19:39:50.163Z,29.80
2017-05-08T19:42:20.750Z,28.90
2017-05-08T19:44:51.687Z,28.50
2017-05-08T19:47:22.386Z,29.20
2017-05-08T19:49:53.129Z,29.00
2017-05-08T19:52:23.675Z,28.60
2017-05-08T19:54:55.121Z,28.20
2017-05-08T19:57:25.791Z,26.90
2017-05-08T19:59:56.770Z,26.50
2017-05-08T20:02:27.593Z,25.60
2017-05-08T20:04:58.298Z,24.30
2017-05-08T20:07:28.904Z,23.80
2017-05-08T20:09:59.784Z,23.80
2017-05-08T20:12:30.765Z,23.50
2017-05-08T20:15:01.611Z,23.50
2017-05-08T20:17:32.270Z,23.30
2017-05-08T20:20:02.333Z,22.50
2017-05-08T20:22:32.440Z,22.00
2017-05-08T20:25:02.598Z,22.20
2017-05-08T20:27:34.484Z,21.80
2017-05-08T20:30:05.174Z,21.70
2017-05-08T20:32:35.471Z,21.70
2017-05-08T20:35:06.480Z,21.70
2017-05-08T20:37:37.145Z,21.60
2017-05-08T20:40:07.925Z,21.30
2017-05-08T20:42:38.564Z,21.40
2017-05-08T20:45:10.202Z,21.60
2017-05-08T20:47:40.453Z,21.70
2017-05-08T20:50:11.533Z,21.80
2017-05-08T20:52:42.081Z,21.60
2017-05-08T20:55:13.030Z,21.50
2017-05-08T20:57:43.764Z,21.30
2017-05-08T21:00:14.702Z,21.10
2017-05-08T21:02:45.259Z,21.00
2017-05-08T21:05:15.975Z,21.00
2017-05-08T21:07:46.837Z,20.70
2017-05-08T21:10:17.589Z,20.90
2017-05-08T21:12:48.143Z,20.90
2017-05-08T21:15:19.112Z,20.80
2017-05-08T21:17:50.072Z,21.00
2017-05-08T21:20:21.034Z,21.40
2017-05-08T21:22:51.873Z,21.60
2017-05-08T21:25:22.802Z,21.60
2017-05-08T21:27:54.555Z,21.30
2017-05-08T21:30:25.475Z,21.00
2017-05-08T21:32:56.352Z,21.30
2017-05-08T21:35:27.466Z,21.70
2017-05-08T21:37:58.428Z,21.80
2017-05-08T21:40:29.094Z,22.00
2017-05-08T21:42:59.818Z,21.90
2017-05-08T21:45:30.661Z,21.90
2017-05-08T21:48:01.356Z,22.00
2017-05-08T21:50:32.554Z,22.00
2017-05-08T21:53:03.390Z,22.20
2017-05-08T21:55:34.416Z,22.20
2017-05-08T21:58:05.259Z,22.20
2017-05-08T22:00:35.999Z,22.00
2017-05-08T22:03:06.846Z,22.00
2017-05-08T22:05:37.810Z,22.20
2017-05-08T22:08:08.449Z,21.80
2017-05-08T22:10:39.413Z,21.50
2017-05-08T22:13:10.115Z,21.70
2017-05-08T22:15:40.834Z,21.80
2017-05-08T22:18:11.308Z,21.60
2017-05-08T22:20:42.005Z,21.60
2017-05-08T22:23:12.698Z,21.70
2017-05-08T22:25:43.238Z,22.00
2017-05-08T22:28:15.245Z,22.20
2017-05-08T22:30:45.929Z,22.40
2017-05-08T22:33:16.801Z,22.50
2017-05-08T22:35:47.823Z,22.40
2017-05-08T22:38:18.635Z,22.50
2017-05-08T22:40:49.198Z,22.30
2017-05-08T22:43:19.748Z,22.20
2017-05-08T22:45:50.403Z,22.10
2017-05-08T22:48:21.240Z,22.30
2017-05-08T22:50:52.169Z,22.30
2017-05-08T22:53:23.085Z,22.40
2017-05-08T22:55:53.710Z,22.20
2017-05-08T22:58:24.711Z,22.20
2017-05-08T23:00:55.475Z,22.40
2017-05-08T23:03:26.040Z,22.20
2017-05-08T23:05:56.709Z,22.20
2017-05-08T23:08:27.840Z,22.00
2017-05-08T23:10:58.360Z,22.20
2017-05-08T23:13:29.077Z,22.10
2017-05-08T23:16:00.501Z,22.10
2017-05-08T23:18:31.285Z,22.10
2017-05-08T23:21:02.084Z,22.10
2017-05-08T23:23:32.913Z,22.00
2017-05-08T23:26:03.581Z,22.10
2017-05-08T23:28:35.282Z,22.00
2017-05-08T23:31:06.093Z,22.00
2017-05-08T23:33:36.959Z,22.00
2017-05-08T23:36:07.784Z,21.90
2017-05-08T23:38:38.222Z,21.90
2017-05-08T23:41:09.143Z,21.90
2017-05-08T23:43:39.944Z,21.90
2017-05-08T23:46:10.802Z,21.70
2017-05-08T23:48:41.210Z,21.70
2017-05-08T23:51:12.155Z,21.80
2017-05-08T23:53:42.751Z,21.90
2017-05-08T23:56:14.489Z,22.00
2017-05-08T23:58:45.212Z,22.00
